createdAt,value
2017-12-05T00:00:57.327Z,55.70
2017-12-05T00:03:25.596Z,55.70
2017-12-05T00:05:53.056Z,51.87
2017-12-05T00:08:20.661Z,53.50
2017-12-05T00:10:48.141Z,53.17
2017-12-05T00:13:15.718Z,49.27
2017-12-05T00:15:43.243Z,51.67
2017-12-05T00:18:10.724Z,51.03
2017-12-05T00:20:38.200Z,49.70
2017-12-05T00:25:40.389Z,54.83
2017-12-05T00:28:08.643Z,48.60
2017-12-05T00:30:36.108Z,51.70
2017-12-05T00:33:03.593Z,57.87
2017-12-05T00:35:31.850Z,59.50
2017-12-05T00:37:59.313Z,58.30
2017-12-05T00:40:26.781Z,58.77
2017-12-05T00:42:55.036Z,49.50
2017-12-05T00:45:22.514Z,67.03
2017-12-05T00:47:50.737Z,56.40
2017-12-05T00:50:18.633Z,69.57
2017-12-05T00:52:47.501Z,56.67
2017-12-05T00:55:14.965Z,61.40
2017-12-05T00:57:42.501Z,55.30
2017-12-05T01:00:10.137Z,66.40
2017-12-05T01:02:38.352Z,51.23
2017-12-05T01:05:05.817Z,51.67
2017-12-05T01:07:33.300Z,57.90
2017-12-05T01:10:01.531Z,57.30
2017-12-05T01:12:28.998Z,49.57
2017-12-05T01:14:56.483Z,52.17
2017-12-05T01:17:23.984Z,62.80
2017-12-05T01:19:51.454Z,60.03
2017-12-05T01:22:18.923Z,59.40
2017-12-05T01:24:46.393Z,66.53
2017-12-05T01:27:13.856Z,55.67
2017-12-05T01:29:41.336Z,48.93
2017-12-05T01:32:09.560Z,63.27
2017-12-05T01:34:37.030Z,53.57
2017-12-05T01:37:04.488Z,44.80
2017-12-05T01:39:31.989Z,41.50
2017-12-05T01:42:00.217Z,48.33
2017-12-05T01:44:27.692Z,54.07
2017-12-05T01:46:55.170Z,69.90
2017-12-05T01:49:23.457Z,51.07
2017-12-05T01:51:50.930Z,39.50
2017-12-05T01:54:18.396Z,42.67
2017-12-05T01:56:45.859Z,40.90
2017-12-05T01:59:13.442Z,57.03
2017-12-05T02:01:40.904Z,43.60
2017-12-05T02:04:08.368Z,35.20
2017-12-05T02:06:35.953Z,41.70
2017-12-05T02:09:04.195Z,41.10
2017-12-05T02:11:31.713Z,35.53
2017-12-05T02:13:59.884Z,31.33
2017-12-05T02:16:27.341Z,33.37
2017-12-05T02:18:55.202Z,33.83
2017-12-05T02:21:22.659Z,28.70
2017-12-05T02:23:50.190Z,31.17
2017-12-05T02:26:17.678Z,35.13
2017-12-05T02:28:45.141Z,32.30
2017-12-05T02:31:12.618Z,31.97
2017-12-05T02:33:40.092Z,40.13
2017-12-05T02:36:07.561Z,31.57
2017-12-05T02:38:35.042Z,33.33
2017-12-05T02:41:09.537Z,28.27
2017-12-05T02:43:37.005Z,33.67
2017-12-05T02:46:05.249Z,31.87
2017-12-05T02:48:32.757Z,29.83
2017-12-05T02:51:00.268Z,46.53
2017-12-05T02:53:27.844Z,30.53
2017-12-05T02:55:55.414Z,31.20
2017-12-05T02:58:23.657Z,24.70
2017-12-05T03:00:51.139Z,34.77
2017-12-05T03:03:18.597Z,32.40
2017-12-05T03:05:46.845Z,32.07
2017-12-05T03:08:14.325Z,26.87
2017-12-05T03:10:41.795Z,26.83
2017-12-05T03:13:10.035Z,27.27
2017-12-05T03:15:37.495Z,35.17
2017-12-05T03:18:05.002Z,31.33
2017-12-05T03:20:32.452Z,37.00
2017-12-05T03:23:00.061Z,30.33
2017-12-05T03:25:27.524Z,32.50
2017-12-05T03:27:54.982Z,23.30
2017-12-05T03:30:22.456Z,35.93
2017-12-05T03:32:49.922Z,27.53
2017-12-05T03:35:21.024Z,26.53
2017-12-05T03:37:49.401Z,28.67
2017-12-05T03:40:17.091Z,31.40
2017-12-05T03:42:44.578Z,32.37
2017-12-05T03:45:12.815Z,22.93
2017-12-05T03:47:40.295Z,28.67
2017-12-05T03:50:07.744Z,22.67
2017-12-05T03:52:35.225Z,22.93
2017-12-05T03:55:02.790Z,36.37
2017-12-05T03:57:30.267Z,37.00
2017-12-05T03:59:57.738Z,36.20
2017-12-05T04:02:25.209Z,28.13
2017-12-05T04:04:52.693Z,25.57
2017-12-05T04:07:20.164Z,33.20
2017-12-05T04:09:48.403Z,28.77
2017-12-05T04:12:15.860Z,37.23
2017-12-05T04:14:43.340Z,23.63
2017-12-05T04:17:11.612Z,31.33
2017-12-05T04:19:39.255Z,29.00
2017-12-05T04:22:06.718Z,33.93
2017-12-05T04:24:34.182Z,34.23
2017-12-05T04:27:01.642Z,25.13
2017-12-05T04:29:29.140Z,29.00
2017-12-05T04:31:56.612Z,27.87
2017-12-05T04:34:24.100Z,32.07
2017-12-05T04:36:51.574Z,36.23
2017-12-05T04:39:19.817Z,42.13
2017-12-05T04:41:47.297Z,42.17
2017-12-05T04:44:14.782Z,35.43
2017-12-05T04:46:43.021Z,28.57
2017-12-05T04:49:10.518Z,31.80
2017-12-05T04:51:38.812Z,48.77
2017-12-05T04:54:06.269Z,29.73
2017-12-05T04:56:33.749Z,40.97
2017-12-05T04:59:01.221Z,40.97
2017-12-05T05:01:28.769Z,34.80
2017-12-05T05:03:56.245Z,30.37
2017-12-05T05:06:23.727Z,34.73
2017-12-05T05:08:51.973Z,44.77
2017-12-05T05:11:19.440Z,37.77
2017-12-05T05:13:47.708Z,42.33
2017-12-05T05:16:15.244Z,45.80
2017-12-05T05:18:42.719Z,38.50
2017-12-05T05:21:10.199Z,36.73
2017-12-05T05:23:38.537Z,41.80
2017-12-05T05:26:06.009Z,37.77
2017-12-05T05:28:33.581Z,45.40
2017-12-05T05:31:01.065Z,47.77
2017-12-05T05:33:29.288Z,55.50
2017-12-05T05:35:56.778Z,45.03
2017-12-05T05:38:24.248Z,41.70
2017-12-05T05:40:52.499Z,45.00
2017-12-05T05:43:20.652Z,46.57
2017-12-05T05:45:48.123Z,40.50
2017-12-05T05:48:15.618Z,52.57
2017-12-05T05:50:43.078Z,54.50
2017-12-05T05:53:10.552Z,44.97
2017-12-05T05:55:38.852Z,44.03
2017-12-05T05:58:06.337Z,56.27
2017-12-05T06:00:33.816Z,64.83
2017-12-05T06:03:02.094Z,55.10
2017-12-05T06:05:30.349Z,48.73
2017-12-05T06:07:58.590Z,56.43
2017-12-05T06:10:26.073Z,47.90
2017-12-05T06:12:53.525Z,48.87
2017-12-05T06:15:21.043Z,56.30
2017-12-05T06:17:48.581Z,60.67
2017-12-05T06:20:16.066Z,47.43
2017-12-05T06:22:43.526Z,68.90
2017-12-05T06:25:11.013Z,64.27
2017-12-05T06:27:38.480Z,58.30
2017-12-05T06:30:05.944Z,58.77
2017-12-05T06:32:33.415Z,55.10
2017-12-05T06:35:01.661Z,68.47
2017-12-05T06:37:29.142Z,63.83
2017-12-05T06:39:57.379Z,58.13
2017-12-05T06:42:24.849Z,63.80
2017-12-05T06:44:52.313Z,52.50
2017-12-05T06:47:19.781Z,59.03
2017-12-05T06:49:48.129Z,61.97
2017-12-05T06:52:15.610Z,62.20
2017-12-05T06:54:43.114Z,66.20
2017-12-05T06:57:10.588Z,54.67
2017-12-05T06:59:38.050Z,54.27
2017-12-05T07:02:05.539Z,58.63
2017-12-05T07:04:33.786Z,56.53
2017-12-05T07:07:01.261Z,52.17
2017-12-05T07:09:28.733Z,50.90
2017-12-05T07:11:56.980Z,54.10
2017-12-05T07:14:24.451Z,57.27
2017-12-05T07:16:51.925Z,52.93
2017-12-05T07:19:20.166Z,61.77
2017-12-05T07:21:47.725Z,43.40
2017-12-05T07:24:15.212Z,48.83
2017-12-05T07:26:43.472Z,55.13
2017-12-05T07:29:10.925Z,54.87
2017-12-05T07:31:38.403Z,56.10
2017-12-05T07:34:06.645Z,57.13
2017-12-05T07:36:34.213Z,48.00
2017-12-05T07:39:01.688Z,63.40
2017-12-05T07:41:29.939Z,50.17
2017-12-05T07:43:57.413Z,55.23
2017-12-05T07:46:24.885Z,56.83
2017-12-05T07:48:53.117Z,51.73
2017-12-05T07:51:20.627Z,48.37
2017-12-05T07:53:48.112Z,59.47
2017-12-05T07:56:15.578Z,52.37
2017-12-05T07:58:43.053Z,51.57
2017-12-05T08:01:10.516Z,64.73
2017-12-05T08:03:38.269Z,52.70
2017-12-05T08:06:05.807Z,55.83
2017-12-05T08:08:33.317Z,50.90
2017-12-05T08:11:01.589Z,49.60
2017-12-05T08:13:29.050Z,55.50
2017-12-05T08:15:57.297Z,50.90
2017-12-05T08:18:24.744Z,54.53
2017-12-05T08:20:52.230Z,48.40
2017-12-05T08:23:19.696Z,61.57
2017-12-05T08:25:47.947Z,56.37
2017-12-05T08:28:15.414Z,56.10
2017-12-05T08:30:44.605Z,56.60
2017-12-05T08:33:12.077Z,56.07
2017-12-05T08:35:40.315Z,65.73
2017-12-05T08:38:07.779Z,47.33
2017-12-05T08:40:35.238Z,50.73
2017-12-05T08:43:02.746Z,58.53
2017-12-05T08:45:30.366Z,52.87
2017-12-05T08:47:57.988Z,54.20
2017-12-05T08:50:26.430Z,56.47
2017-12-05T08:52:54.766Z,61.97
2017-12-05T08:55:22.239Z,58.97
2017-12-05T08:57:50.480Z,60.90
2017-12-05T09:00:17.950Z,49.73
2017-12-05T09:02:45.408Z,53.83
2017-12-05T09:05:12.880Z,53.67
2017-12-05T09:07:40.341Z,51.80
2017-12-05T09:10:07.934Z,53.23
2017-12-05T09:12:36.165Z,57.80
2017-12-05T09:15:03.651Z,53.90
2017-12-05T09:17:31.120Z,49.30
2017-12-05T09:19:59.353Z,50.77
2017-12-05T09:22:26.828Z,64.37
2017-12-05T09:24:54.308Z,59.53
2017-12-05T09:27:22.547Z,52.60
2017-12-05T09:29:50.017Z,50.70
2017-12-05T09:32:17.494Z,50.00
2017-12-05T09:34:45.733Z,46.57
2017-12-05T09:37:13.290Z,51.07
2017-12-05T09:39:40.822Z,53.50
2017-12-05T09:42:08.365Z,53.80
2017-12-05T09:44:35.966Z,55.67
2017-12-05T09:47:03.449Z,46.20
2017-12-05T09:49:30.929Z,50.03
2017-12-05T09:51:59.179Z,49.40
2017-12-05T09:54:26.697Z,50.77
2017-12-05T09:56:54.181Z,51.00
2017-12-05T09:59:21.646Z,56.97
2017-12-05T10:01:49.920Z,55.30
2017-12-05T10:04:17.417Z,48.73
2017-12-05T10:06:45.016Z,42.43
2017-12-05T10:09:13.349Z,47.47
2017-12-05T10:11:40.823Z,53.60
2017-12-05T10:14:08.285Z,51.93
2017-12-05T10:16:35.760Z,45.20
2017-12-05T10:19:03.249Z,49.33
2017-12-05T10:21:30.704Z,58.00
2017-12-05T10:23:58.180Z,54.37
2017-12-05T10:26:26.413Z,44.00
2017-12-05T10:28:53.896Z,42.90
2017-12-05T10:31:21.361Z,47.87
2017-12-05T10:33:49.623Z,48.03
2017-12-05T10:36:17.112Z,45.97
2017-12-05T10:38:45.310Z,47.47
2017-12-05T10:41:12.797Z,44.37
2017-12-05T10:43:40.272Z,45.17
2017-12-05T10:46:07.764Z,50.90
2017-12-05T10:48:35.239Z,46.73
2017-12-05T10:51:02.800Z,37.80
2017-12-05T10:53:30.460Z,51.90
2017-12-05T10:55:57.961Z,39.10
2017-12-05T10:58:25.441Z,41.40
2017-12-05T11:00:53.757Z,48.20
2017-12-05T11:03:21.250Z,45.87
2017-12-05T11:05:48.715Z,49.23
2017-12-05T11:08:16.188Z,44.53
2017-12-05T11:10:44.441Z,40.10
2017-12-05T11:13:11.899Z,42.80
2017-12-05T11:15:39.363Z,48.77
2017-12-05T11:18:07.595Z,46.03
2017-12-05T11:20:35.074Z,51.50
2017-12-05T11:23:02.551Z,40.93
2017-12-05T11:25:30.026Z,48.80
2017-12-05T11:27:58.269Z,46.17
2017-12-05T11:30:25.736Z,40.43
2017-12-05T11:32:53.213Z,42.90
2017-12-05T11:35:21.469Z,38.20
2017-12-05T11:37:48.993Z,44.03
2017-12-05T11:40:16.480Z,42.67
2017-12-05T11:42:43.949Z,47.20
2017-12-05T11:45:12.195Z,42.17
2017-12-05T11:47:39.664Z,44.13
2017-12-05T11:50:07.214Z,53.03
2017-12-05T11:52:34.823Z,39.33
2017-12-05T11:55:02.280Z,43.97
2017-12-05T11:57:29.808Z,43.70
2017-12-05T11:59:57.292Z,42.47
2017-12-05T12:02:25.524Z,41.70
2017-12-05T12:04:52.993Z,38.97
2017-12-05T12:07:20.474Z,43.40
2017-12-05T12:09:48.701Z,40.30
2017-12-05T12:12:16.173Z,45.63
2017-12-05T12:14:43.633Z,39.03
2017-12-05T12:17:11.121Z,47.37
2017-12-05T12:19:38.585Z,41.03
2017-12-05T12:22:06.068Z,45.43
2017-12-05T12:24:33.605Z,41.00
2017-12-05T12:27:01.073Z,41.67
2017-12-05T12:29:28.616Z,41.00
2017-12-05T12:31:56.076Z,44.53
2017-12-05T12:34:23.804Z,39.17
2017-12-05T12:36:51.354Z,38.00
2017-12-05T12:39:18.836Z,44.20
2017-12-05T12:41:46.317Z,38.90
2017-12-05T12:44:14.018Z,49.80
2017-12-05T12:46:41.537Z,45.13
2017-12-05T12:49:09.044Z,41.00
2017-12-05T12:51:36.510Z,41.63
2017-12-05T12:54:03.995Z,50.50
2017-12-05T12:56:31.481Z,42.83
2017-12-05T12:58:58.948Z,38.83
2017-12-05T13:01:26.431Z,40.07
2017-12-05T13:03:53.901Z,37.90
2017-12-05T13:06:21.355Z,44.20
2017-12-05T13:08:48.870Z,40.87
2017-12-05T13:11:16.341Z,37.53
2017-12-05T13:13:43.825Z,40.07
2017-12-05T13:16:11.290Z,41.30
2017-12-05T13:18:39.542Z,39.70
2017-12-05T13:21:07.017Z,37.00
2017-12-05T13:23:35.293Z,35.90
2017-12-05T13:26:03.009Z,39.57
2017-12-05T13:28:30.520Z,45.30
2017-12-05T13:30:58.763Z,37.67
2017-12-05T13:33:26.226Z,32.40
2017-12-05T13:35:53.693Z,36.63
2017-12-05T13:38:21.164Z,36.00
2017-12-05T13:40:49.407Z,33.60
2017-12-05T13:43:17.068Z,38.50
2017-12-05T13:45:44.585Z,35.70
2017-12-05T13:48:12.161Z,35.70
2017-12-05T13:50:39.649Z,39.67
2017-12-05T13:53:07.125Z,41.07
2017-12-05T13:55:34.606Z,34.50
2017-12-05T13:58:02.843Z,34.57
2017-12-05T14:00:30.365Z,38.93
2017-12-05T14:02:57.934Z,34.63
2017-12-05T14:05:25.418Z,31.50
2017-12-05T14:07:52.902Z,31.73
2017-12-05T14:10:21.157Z,33.27
2017-12-05T14:12:48.621Z,39.70
2017-12-05T14:15:16.089Z,34.23
2017-12-05T14:17:44.572Z,35.50
2017-12-05T14:20:13.482Z,35.83
2017-12-05T14:22:41.866Z,41.83
2017-12-05T14:25:09.367Z,43.93
2017-12-05T14:27:36.836Z,35.90
2017-12-05T14:30:04.357Z,36.70
2017-12-05T14:32:31.817Z,33.90
2017-12-05T14:34:59.291Z,34.30
2017-12-05T14:37:26.783Z,34.80
2017-12-05T14:39:54.278Z,30.93
2017-12-05T14:42:21.750Z,32.23
2017-12-05T14:44:49.232Z,33.23
2017-12-05T14:47:16.697Z,35.67
2017-12-05T14:49:44.168Z,30.47
2017-12-05T14:52:12.433Z,28.00
2017-12-05T14:54:40.690Z,34.50
2017-12-05T14:57:08.165Z,30.23
2017-12-05T14:59:36.413Z,29.00
2017-12-05T15:02:03.895Z,32.23
2017-12-05T15:04:31.413Z,27.77
2017-12-05T15:06:59.093Z,29.20
2017-12-05T15:09:26.625Z,33.57
2017-12-05T15:11:54.326Z,30.90
2017-12-05T15:14:21.805Z,32.83
2017-12-05T15:16:51.509Z,25.63
2017-12-05T15:19:19.749Z,30.87
2017-12-05T15:21:47.261Z,31.23
2017-12-05T15:24:14.741Z,28.77
2017-12-05T15:26:42.202Z,25.63
2017-12-05T15:29:09.677Z,28.93
2017-12-05T15:31:37.137Z,32.23
2017-12-05T15:34:04.617Z,28.07
2017-12-05T15:36:32.079Z,27.43
2017-12-05T15:38:59.579Z,33.37
2017-12-05T15:41:27.073Z,30.97
2017-12-05T15:43:54.554Z,30.93
2017-12-05T15:46:22.808Z,26.23
2017-12-05T15:48:50.265Z,29.10
2017-12-05T15:51:17.742Z,35.60
2017-12-05T15:53:46.005Z,28.53
2017-12-05T15:56:13.721Z,31.33
2017-12-05T15:58:41.233Z,26.30
2017-12-05T16:01:08.723Z,28.07
2017-12-05T16:03:36.190Z,31.27
2017-12-05T16:06:04.240Z,28.37
2017-12-05T16:08:32.618Z,27.30
2017-12-05T16:11:00.870Z,31.47
2017-12-05T16:13:28.344Z,22.43
2017-12-05T16:15:56.598Z,23.43
2017-12-05T16:18:24.069Z,29.43
2017-12-05T16:20:52.423Z,29.50
2017-12-05T16:23:19.894Z,28.23
2017-12-05T16:25:47.640Z,32.30
2017-12-05T16:28:15.110Z,28.77
2017-12-05T16:30:42.677Z,30.83
2017-12-05T16:33:10.137Z,28.27
2017-12-05T16:35:38.402Z,25.30
2017-12-05T16:38:05.870Z,24.30
2017-12-05T16:40:34.244Z,30.13
2017-12-05T16:43:01.774Z,22.97
2017-12-05T16:45:29.256Z,27.93
2017-12-05T16:47:56.729Z,28.80
2017-12-05T16:50:25.489Z,26.70
2017-12-05T16:52:53.010Z,22.10
2017-12-05T16:55:20.484Z,20.57
2017-12-05T16:57:47.949Z,25.90
2017-12-05T17:00:15.429Z,23.77
2017-12-05T17:02:42.901Z,24.60
2017-12-05T17:05:11.641Z,22.63
2017-12-05T17:07:39.123Z,24.30
2017-12-05T17:10:06.605Z,21.60
2017-12-05T17:12:34.850Z,23.93
2017-12-05T17:15:02.349Z,25.57
2017-12-05T17:17:29.814Z,22.17
2017-12-05T17:19:57.281Z,22.77
2017-12-05T17:22:25.525Z,23.40
2017-12-05T17:24:53.772Z,20.73
2017-12-05T17:27:21.370Z,22.37
2017-12-05T17:29:48.896Z,26.57
2017-12-05T17:32:16.361Z,27.47
2017-12-05T17:34:44.600Z,24.63
2017-12-05T17:37:12.084Z,24.13
2017-12-05T17:39:39.545Z,23.33
2017-12-05T17:42:07.797Z,24.43
2017-12-05T17:44:35.356Z,24.87
2017-12-05T17:47:02.820Z,21.43
2017-12-05T17:49:30.313Z,23.40
2017-12-05T17:51:57.764Z,25.37
2017-12-05T17:54:26.014Z,22.23
2017-12-05T17:56:53.593Z,23.40
2017-12-05T17:59:21.842Z,24.53
2017-12-05T18:01:49.317Z,22.53
2017-12-05T18:04:16.928Z,20.47
2017-12-05T18:06:44.537Z,21.67
2017-12-05T18:09:12.754Z,21.83
2017-12-05T18:11:40.238Z,24.10
2017-12-05T18:14:07.716Z,23.87
2017-12-05T18:16:35.185Z,20.87
2017-12-05T18:19:02.725Z,26.20
2017-12-05T18:21:30.200Z,19.43
2017-12-05T18:23:58.443Z,19.67
2017-12-05T18:28:59.737Z,24.87
2017-12-05T18:31:27.225Z,20.50
2017-12-05T18:33:54.713Z,21.03
2017-12-05T18:36:22.205Z,22.50
2017-12-05T18:38:50.610Z,21.27
2017-12-05T18:41:18.088Z,21.63
2017-12-05T18:43:45.580Z,21.47
2017-12-05T18:46:13.897Z,23.80
2017-12-05T18:48:42.152Z,29.73
2017-12-05T18:51:09.628Z,19.33
2017-12-05T18:53:37.869Z,22.03
2017-12-05T18:56:05.349Z,21.13
2017-12-05T18:58:33.599Z,19.80
2017-12-05T19:01:01.181Z,26.30
2017-12-05T19:03:29.411Z,25.30
2017-12-05T19:05:56.926Z,20.10
2017-12-05T19:08:24.369Z,19.30
2017-12-05T19:10:51.868Z,20.33
2017-12-05T19:13:19.609Z,23.00
2017-12-05T19:15:47.133Z,21.60
2017-12-05T19:18:14.617Z,23.40
2017-12-05T19:20:42.865Z,18.60
2017-12-05T19:23:10.364Z,20.40
2017-12-05T19:25:37.841Z,18.40
2017-12-05T19:28:05.299Z,21.20
2017-12-05T19:30:32.797Z,25.30
2017-12-05T19:33:00.252Z,17.73
2017-12-05T19:35:27.733Z,17.57
2017-12-05T19:37:55.979Z,19.37
2017-12-05T19:40:23.436Z,21.50
2017-12-05T19:42:50.920Z,17.10
2017-12-05T19:45:19.192Z,18.63
2017-12-05T19:47:46.632Z,17.00
2017-12-05T19:50:14.094Z,25.10
2017-12-05T19:52:41.564Z,18.50
2017-12-05T19:55:09.799Z,17.90
2017-12-05T19:57:37.285Z,18.60
2017-12-05T20:00:04.741Z,21.47
2017-12-05T20:02:32.990Z,16.90
2017-12-05T20:05:00.459Z,20.40
2017-12-05T20:07:27.999Z,23.70
2017-12-05T20:09:55.463Z,20.60
2017-12-05T20:12:22.961Z,18.33
2017-12-05T20:14:51.199Z,22.83
2017-12-05T20:17:18.730Z,14.93
2017-12-05T20:19:46.229Z,19.90
2017-12-05T20:22:13.701Z,20.70
2017-12-05T20:24:41.942Z,22.57
2017-12-05T20:27:09.397Z,15.10
2017-12-05T20:29:36.865Z,19.43
2017-12-05T20:32:04.370Z,17.87
2017-12-05T20:34:31.911Z,15.70
2017-12-05T20:37:01.004Z,23.30
2017-12-05T20:39:29.242Z,19.83
2017-12-05T20:41:56.712Z,17.70
2017-12-05T20:44:24.995Z,15.17
2017-12-05T20:46:52.469Z,14.93
2017-12-05T20:49:20.725Z,18.43
2017-12-05T20:51:48.204Z,25.30
2017-12-05T20:54:16.434Z,16.40
2017-12-05T20:56:43.894Z,16.20
2017-12-05T20:59:11.439Z,17.90
2017-12-05T21:01:38.900Z,18.50
2017-12-05T21:04:06.383Z,16.30
2017-12-05T21:06:33.840Z,20.63
2017-12-05T21:09:01.337Z,17.27
2017-12-05T21:11:28.807Z,17.57
2017-12-05T21:13:56.286Z,18.30
2017-12-05T21:16:23.781Z,15.50
2017-12-05T21:18:52.012Z,17.47
2017-12-05T21:21:19.485Z,17.53
2017-12-05T21:23:46.943Z,20.00
2017-12-05T21:26:14.439Z,18.00
2017-12-05T21:28:42.676Z,20.17
2017-12-05T21:31:10.162Z,17.93
2017-12-05T21:33:37.628Z,17.63
2017-12-05T21:36:05.874Z,22.70
2017-12-05T21:38:33.331Z,19.07
2017-12-05T21:41:00.885Z,17.50
2017-12-05T21:43:28.458Z,21.93
2017-12-05T21:45:55.937Z,18.63
2017-12-05T21:48:24.273Z,18.63
2017-12-05T21:50:52.481Z,18.57
2017-12-05T21:53:20.730Z,18.60
2017-12-05T21:55:48.261Z,18.90
2017-12-05T21:58:15.920Z,18.00
2017-12-05T22:00:43.385Z,18.80
2017-12-05T22:03:10.884Z,20.53
2017-12-05T22:05:38.345Z,19.50
2017-12-05T22:08:07.109Z,21.10
2017-12-05T22:10:34.615Z,18.77
2017-12-05T22:13:03.049Z,17.70
2017-12-05T22:15:30.546Z,18.27
2017-12-05T22:17:58.006Z,15.77
2017-12-05T22:20:25.484Z,19.73
2017-12-05T22:22:52.956Z,15.90
2017-12-05T22:25:20.433Z,15.60
2017-12-05T22:27:47.907Z,18.47
2017-12-05T22:30:16.152Z,18.47
2017-12-05T22:32:43.646Z,14.90
2017-12-05T22:35:11.909Z,16.23
2017-12-05T22:37:39.390Z,14.80
2017-12-05T22:40:07.625Z,17.03
2017-12-05T22:42:35.151Z,14.53
2017-12-05T22:45:02.628Z,17.00
2017-12-05T22:47:30.104Z,17.60
2017-12-05T22:49:57.591Z,19.30
2017-12-05T22:52:25.834Z,16.00
2017-12-05T22:54:55.453Z,14.70
2017-12-05T22:57:22.925Z,16.77
2017-12-05T22:59:51.173Z,14.33
2017-12-05T23:02:18.663Z,11.77
2017-12-05T23:04:46.911Z,14.70
2017-12-05T23:07:14.385Z,12.50
2017-12-05T23:09:42.636Z,14.87
2017-12-05T23:12:10.116Z,14.13
2017-12-05T23:14:38.353Z,14.90
2017-12-05T23:17:05.841Z,15.57
2017-12-05T23:19:33.309Z,17.50
2017-12-05T23:22:01.622Z,11.67
2017-12-05T23:24:29.092Z,15.80
2017-12-05T23:26:56.568Z,14.23
2017-12-05T23:29:24.053Z,14.50
2017-12-05T23:31:52.289Z,15.70
2017-12-05T23:34:19.778Z,14.33
2017-12-05T23:36:48.164Z,18.50
2017-12-05T23:39:15.813Z,18.13
2017-12-05T23:41:43.287Z,21.30
2017-12-05T23:44:11.518Z,17.70
2017-12-05T23:46:39.008Z,17.07
2017-12-05T23:49:06.476Z,19.73
2017-12-05T23:51:34.708Z,17.80
2017-12-05T23:54:02.209Z,21.53
2017-12-05T23:56:31.288Z,18.27
2017-12-05T23:58:58.746Z,22.03
